createdAt,value
2022-08-05T00:01:35.626Z,7.18
2022-08-05T00:04:05.254Z,8.60
2022-08-05T00:06:36.716Z,5.55
2022-08-05T00:09:12.694Z,9.80
2022-08-05T00:11:48.222Z,7.72
2022-08-05T00:14:17.066Z,6.65
2022-08-05T00:16:52.329Z,6.00
2022-08-05T00:19:23.203Z,8.85
2022-08-05T00:21:50.730Z,8.13
2022-08-05T00:24:24.312Z,5.55
2022-08-05T00:26:53.396Z,6.38
2022-08-05T00:29:22.550Z,8.13
2022-08-05T00:32:10.031Z,11.27
2022-08-05T00:34:53.479Z,8.07
2022-08-05T00:37:50.631Z,7.07
2022-08-05T00:40:17.753Z,7.88
2022-08-05T00:42:54.126Z,8.32
2022-08-05T00:45:28.301Z,5.75
2022-08-05T00:48:09.424Z,7.40
2022-08-05T00:50:39.555Z,6.28
2022-08-05T00:53:45.364Z,5.10
2022-08-05T00:55:57.389Z,6.80
2022-08-05T00:58:27.179Z,6.63
2022-08-05T01:00:54.862Z,8.45
2022-08-05T01:03:23.425Z,5.20
2022-08-05T01:05:51.793Z,6.55
2022-08-05T01:08:30.677Z,4.18
2022-08-05T01:11:22.516Z,7.97
2022-08-05T01:14:18.586Z,7.47
2022-08-05T01:17:09.649Z,5.53
2022-08-05T01:20:02.451Z,7.55
2022-08-05T01:23:23.329Z,7.18
2022-08-05T01:26:15.019Z,7.45
2022-08-05T01:28:54.501Z,8.80
2022-08-05T01:31:46.900Z,6.70
2022-08-05T01:34:32.437Z,7.10
2022-08-05T01:37:07.240Z,7.40
2022-08-05T01:39:46.798Z,7.90
2022-08-05T01:42:19.955Z,7.82
2022-08-05T01:44:53.811Z,5.40
2022-08-05T01:47:38.607Z,7.68
2022-08-05T01:50:15.136Z,6.15
2022-08-05T01:52:50.045Z,7.82
2022-08-05T01:55:20.916Z,7.88
2022-08-05T01:58:10.467Z,7.60
2022-08-05T02:00:40.891Z,9.90
2022-08-05T02:03:31.618Z,9.32
2022-08-05T02:06:03.400Z,6.10
2022-08-05T02:08:40.981Z,6.78
2022-08-05T02:11:23.895Z,5.22
2022-08-05T02:14:02.141Z,9.07
2022-08-05T02:16:46.908Z,6.90
2022-08-05T02:19:28.769Z,12.98
2022-08-05T02:22:25.530Z,9.88
2022-08-05T02:25:01.979Z,5.63
2022-08-05T02:30:18.974Z,7.95
2022-08-05T02:32:51.583Z,6.32
2022-08-05T02:35:28.180Z,8.10
2022-08-05T02:38:02.265Z,5.57
2022-08-05T02:40:31.296Z,6.88
2022-08-05T02:43:02.645Z,6.07
2022-08-05T02:48:28.954Z,5.80
2022-08-05T02:53:39.788Z,6.63
2022-08-05T02:56:34.584Z,5.68
2022-08-05T02:59:03.833Z,6.95
2022-08-05T03:01:40.322Z,8.57
2022-08-05T03:04:14.273Z,5.72
2022-08-05T03:06:55.331Z,8.80
2022-08-05T03:09:37.423Z,6.68
2022-08-05T03:12:07.997Z,7.10
2022-08-05T03:14:45.621Z,7.22
2022-08-05T03:17:13.401Z,6.32
2022-08-05T03:19:41.973Z,6.90
2022-08-05T03:22:16.730Z,8.02
2022-08-05T03:24:50.784Z,5.03
2022-08-05T03:27:19.847Z,7.60
2022-08-05T03:30:07.438Z,10.18
2022-08-05T03:32:35.128Z,7.07
2022-08-05T03:35:04.348Z,9.43
2022-08-05T03:37:46.450Z,6.45
2022-08-05T03:40:15.532Z,4.68
2022-08-05T03:42:52.905Z,7.63
2022-08-05T03:45:23.241Z,10.27
2022-08-05T03:47:57.232Z,5.15
2022-08-05T03:50:43.839Z,5.18
2022-08-05T03:56:01.078Z,5.47
2022-08-05T03:56:46.475Z,6.20
2022-08-05T03:59:29.190Z,6.07
2022-08-05T04:02:38.257Z,5.90
2022-08-05T04:05:09.546Z,7.93
2022-08-05T04:07:58.360Z,6.22
2022-08-05T04:10:31.967Z,6.32
2022-08-05T04:13:07.931Z,5.68
2022-08-05T04:15:36.567Z,8.82
2022-08-05T04:18:09.368Z,7.18
2022-08-05T04:20:37.443Z,6.72
2022-08-05T04:23:04.623Z,6.20
2022-08-05T04:25:56.414Z,5.70
2022-08-05T04:28:30.911Z,8.82
2022-08-05T04:31:01.110Z,6.63
2022-08-05T04:34:18.609Z,6.38
2022-08-05T04:36:45.395Z,6.85
2022-08-05T04:39:07.509Z,6.13
2022-08-05T04:41:37.794Z,5.70
2022-08-05T04:44:08.906Z,10.55
2022-08-05T04:46:38.318Z,7.75
2022-08-05T04:49:12.291Z,7.90
2022-08-05T04:51:45.031Z,6.68
2022-08-05T04:54:12.406Z,7.93
2022-08-05T04:56:40.003Z,7.55
2022-08-05T04:59:21.680Z,7.30
2022-08-05T05:02:07.755Z,6.25
2022-08-05T05:04:44.015Z,6.00
2022-08-05T05:07:17.335Z,6.80
2022-08-05T05:09:45.655Z,6.85
2022-08-05T05:12:15.500Z,8.63
2022-08-05T05:14:49.123Z,5.55
2022-08-05T05:17:22.727Z,7.47
2022-08-05T05:19:55.148Z,11.73
2022-08-05T05:22:26.040Z,9.00
2022-08-05T05:24:57.874Z,7.85
2022-08-05T05:30:30.737Z,10.20
2022-08-05T05:33:08.783Z,8.75
2022-08-05T05:35:47.344Z,6.05
2022-08-05T05:38:27.190Z,9.00
2022-08-05T05:40:57.327Z,6.50
2022-08-05T05:43:58.161Z,8.02
2022-08-05T05:46:27.464Z,6.45
2022-08-05T05:48:54.689Z,9.20
2022-08-05T05:51:28.333Z,6.72
2022-08-05T05:53:59.489Z,8.38
2022-08-05T05:56:35.054Z,5.57
2022-08-05T05:59:05.835Z,7.20
2022-08-05T06:01:40.716Z,7.22
2022-08-05T06:04:24.667Z,6.53
2022-08-05T06:06:51.869Z,7.22
2022-08-05T06:09:26.602Z,8.63
2022-08-05T06:12:09.635Z,8.23
2022-08-05T06:14:40.293Z,8.60
2022-08-05T06:17:24.547Z,8.93
2022-08-05T06:19:59.372Z,8.35
2022-08-05T06:22:33.741Z,8.30
2022-08-05T06:25:25.259Z,6.90
2022-08-05T06:28:11.467Z,6.43
2022-08-05T06:30:43.081Z,8.65
2022-08-05T06:33:10.758Z,7.80
2022-08-05T06:36:03.472Z,6.38
2022-08-05T06:38:35.781Z,6.00
2022-08-05T06:41:07.932Z,6.13
2022-08-05T06:43:58.457Z,5.20
2022-08-05T06:46:30.213Z,7.78
2022-08-05T06:49:00.819Z,6.90
2022-08-05T06:51:30.921Z,8.93
2022-08-05T06:54:12.058Z,5.50
2022-08-05T06:56:54.762Z,8.57
2022-08-05T06:59:38.806Z,5.75
2022-08-05T07:02:10.677Z,6.03
2022-08-05T07:04:40.078Z,7.10
2022-08-05T07:07:09.789Z,5.60
2022-08-05T07:09:37.342Z,6.97
2022-08-05T07:12:08.651Z,6.60
2022-08-05T07:14:54.381Z,6.35
2022-08-05T07:18:00.014Z,7.18
2022-08-05T07:22:56.304Z,4.95
2022-08-05T07:25:55.930Z,5.72
2022-08-05T07:28:11.974Z,5.45
2022-08-05T07:30:44.860Z,7.63
2022-08-05T07:33:17.647Z,4.93
2022-08-05T07:36:02.762Z,6.45
2022-08-05T07:42:14.448Z,5.13
2022-08-05T07:44:18.492Z,3.17
2022-08-05T07:46:49.975Z,3.53
2022-08-05T07:49:18.613Z,4.50
2022-08-05T07:51:53.717Z,3.40
2022-08-05T07:54:30.182Z,6.07
2022-08-05T07:57:17.814Z,3.88
2022-08-05T07:59:52.416Z,3.40
2022-08-05T08:02:31.307Z,5.40
2022-08-05T08:05:17.432Z,4.78
2022-08-05T08:08:00.053Z,4.03
2022-08-05T08:10:28.999Z,2.75
2022-08-05T08:12:58.517Z,3.83
2022-08-05T08:16:33.189Z,3.88
2022-08-05T08:18:14.391Z,3.65
2022-08-05T08:21:00.383Z,5.47
2022-08-05T08:24:02.356Z,2.72
2022-08-05T08:26:27.032Z,4.07
2022-08-05T08:29:21.970Z,4.88
2022-08-05T08:31:49.743Z,5.50
2022-08-05T08:34:30.867Z,3.83
2022-08-05T08:37:03.278Z,5.75
2022-08-05T08:39:37.635Z,3.00
2022-08-05T08:42:15.250Z,2.75
2022-08-05T08:45:23.840Z,9.70
2022-08-05T08:48:12.845Z,4.78
2022-08-05T08:51:22.350Z,6.88
2022-08-05T08:53:37.517Z,3.50
2022-08-05T08:56:07.779Z,3.38
2022-08-05T08:58:43.268Z,4.20
2022-08-05T09:01:24.018Z,2.03
2022-08-05T09:04:03.820Z,2.78
2022-08-05T09:06:37.874Z,3.80
2022-08-05T09:09:08.335Z,3.65
2022-08-05T09:11:50.984Z,4.95
2022-08-05T09:14:57.340Z,3.45
2022-08-05T09:17:39.885Z,4.32
2022-08-05T09:20:05.089Z,4.60
2022-08-05T09:23:18.562Z,2.97
2022-08-05T09:26:01.913Z,3.70
2022-08-05T09:28:33.993Z,2.13
2022-08-05T09:31:22.856Z,3.63
2022-08-05T09:34:06.788Z,2.33
2022-08-05T09:36:54.366Z,1.73
2022-08-05T09:39:39.238Z,2.80
2022-08-05T09:42:23.378Z,2.00
2022-08-05T09:44:56.047Z,5.43
2022-08-05T09:47:46.606Z,3.05
2022-08-05T09:50:37.603Z,1.90
2022-08-05T09:53:06.146Z,3.83
2022-08-05T09:55:57.698Z,2.65
2022-08-05T09:58:25.174Z,2.30
2022-08-05T10:00:59.342Z,2.35
2022-08-05T10:03:56.992Z,11.20
2022-08-05T10:06:20.692Z,3.35
2022-08-05T10:08:50.280Z,2.55
2022-08-05T10:11:21.229Z,6.97
2022-08-05T10:13:54.445Z,4.15
2022-08-05T10:16:52.541Z,5.32
2022-08-05T10:20:03.116Z,2.05
2022-08-05T10:22:15.505Z,1.75
2022-08-05T10:24:43.123Z,5.55
2022-08-05T10:27:16.594Z,5.10
2022-08-05T10:30:06.388Z,1.80
2022-08-05T10:32:54.506Z,1.30
2022-08-05T10:35:19.637Z,1.20
2022-08-05T10:37:49.103Z,3.72
2022-08-05T10:40:34.680Z,2.05
2022-08-05T10:43:44.040Z,4.80
2022-08-05T10:46:14.225Z,1.90
2022-08-05T10:48:57.241Z,3.42
2022-08-05T10:51:29.256Z,2.95
2022-08-05T10:54:05.863Z,1.30
2022-08-05T10:56:53.135Z,1.17
2022-08-05T11:00:03.195Z,2.47
2022-08-05T11:02:34.645Z,1.52
2022-08-05T11:05:10.231Z,1.10
2022-08-05T11:08:01.776Z,1.35
2022-08-05T11:10:38.629Z,1.83
2022-08-05T11:13:54.739Z,2.22
2022-08-05T11:16:33.751Z,4.10
2022-08-05T11:20:10.450Z,1.88
2022-08-05T11:22:49.902Z,1.60
2022-08-05T11:26:06.252Z,1.33
2022-08-05T11:28:27.928Z,0.80
2022-08-05T11:30:58.562Z,4.63
2022-08-05T11:33:46.247Z,2.65
2022-08-05T11:36:52.993Z,2.50
2022-08-05T11:40:00.766Z,1.42
2022-08-05T11:42:40.544Z,3.92
2022-08-05T11:45:14.405Z,2.97
2022-08-05T11:47:59.856Z,2.78
2022-08-05T11:50:28.174Z,0.93
2022-08-05T11:52:58.310Z,2.80
2022-08-05T11:55:59.838Z,1.80
2022-08-05T11:58:39.985Z,3.72
2022-08-05T12:01:19.266Z,1.98
2022-08-05T12:03:57.025Z,1.63
2022-08-05T12:06:32.014Z,1.63
2022-08-05T12:08:59.857Z,1.60
2022-08-05T12:11:40.357Z,2.58
2022-08-05T12:14:10.069Z,1.70
2022-08-05T12:16:47.404Z,2.45
2022-08-05T12:20:27.312Z,1.65
2022-08-05T12:22:09.421Z,2.35
2022-08-05T12:24:49.674Z,2.30
2022-08-05T12:27:25.369Z,6.38
2022-08-05T12:30:20.852Z,3.72
2022-08-05T12:32:58.692Z,6.30
2022-08-05T12:35:36.948Z,3.35
2022-08-05T12:38:07.200Z,2.92
2022-08-05T12:40:37.461Z,3.05
2022-08-05T12:43:20.982Z,1.73
2022-08-05T12:45:53.461Z,3.25
2022-08-05T12:48:32.350Z,2.65
2022-08-05T12:52:11.000Z,14.88
2022-08-05T12:54:04.238Z,2.15
2022-08-05T12:56:43.275Z,1.58
2022-08-05T13:00:08.314Z,1.88
2022-08-05T13:02:27.528Z,6.70
2022-08-05T13:04:57.471Z,3.38
2022-08-05T13:07:57.504Z,5.53
2022-08-05T13:10:20.145Z,2.45
2022-08-05T13:12:57.336Z,0.90
2022-08-05T13:15:41.111Z,1.85
2022-08-05T13:18:21.434Z,1.27
2022-08-05T13:20:56.321Z,1.30
2022-08-05T13:23:23.443Z,1.40
2022-08-05T13:26:01.202Z,1.58
2022-08-05T13:28:29.338Z,1.05
2022-08-05T13:31:03.330Z,3.08
2022-08-05T13:34:22.197Z,4.72
2022-08-05T13:36:29.466Z,1.73
2022-08-05T13:38:56.678Z,1.70
2022-08-05T13:41:35.795Z,2.00
2022-08-05T13:44:07.926Z,1.17
2022-08-05T13:46:50.866Z,2.50
2022-08-05T13:49:27.300Z,2.17
2022-08-05T13:51:54.924Z,2.42
2022-08-05T13:54:26.401Z,2.10
2022-08-05T13:56:53.944Z,4.53
2022-08-05T13:59:24.178Z,2.42
2022-08-05T14:02:03.546Z,1.35
2022-08-05T14:04:54.063Z,1.80
2022-08-05T14:08:01.222Z,1.00
2022-08-05T14:10:28.823Z,1.48
2022-08-05T14:12:59.377Z,1.27
2022-08-05T14:16:06.853Z,1.23
2022-08-05T14:18:18.169Z,2.22
2022-08-05T14:20:48.188Z,2.25
2022-08-05T14:23:19.074Z,2.40
2022-08-05T14:25:54.304Z,2.45
2022-08-05T14:28:26.281Z,1.00
2022-08-05T14:30:55.798Z,1.80
2022-08-05T14:33:23.697Z,2.20
2022-08-05T14:35:54.085Z,0.98
2022-08-05T14:38:32.242Z,1.40
2022-08-05T14:41:27.909Z,1.73
2022-08-05T14:44:02.023Z,2.60
2022-08-05T14:46:37.506Z,1.08
2022-08-05T14:49:08.075Z,3.92
2022-08-05T14:51:43.164Z,3.35
2022-08-05T14:54:28.121Z,1.27
2022-08-05T14:56:58.516Z,2.05
2022-08-05T14:59:29.704Z,1.98
2022-08-05T15:02:14.833Z,3.92
2022-08-05T15:04:55.792Z,1.95
2022-08-05T15:08:05.565Z,2.58
2022-08-05T15:10:10.386Z,2.30
2022-08-05T15:12:59.756Z,1.35
2022-08-05T15:15:54.237Z,1.35
2022-08-05T15:18:14.753Z,2.45
2022-08-05T15:20:44.599Z,2.60
2022-08-05T15:23:13.492Z,2.17
2022-08-05T15:25:52.180Z,2.75
2022-08-05T15:28:27.213Z,2.15
2022-08-05T15:30:55.748Z,6.35
2022-08-05T15:34:04.331Z,3.70
2022-08-05T15:36:16.746Z,3.85
2022-08-05T15:38:46.673Z,2.28
2022-08-05T15:41:21.853Z,1.02
2022-08-05T15:43:54.798Z,2.13
2022-08-05T15:46:24.327Z,1.98
2022-08-05T15:48:58.521Z,2.22
2022-08-05T15:52:10.309Z,3.28
2022-08-05T15:54:48.388Z,1.92
2022-08-05T15:57:16.515Z,2.10
2022-08-05T15:59:43.670Z,2.50
2022-08-05T16:02:14.389Z,2.80
2022-08-05T16:04:44.943Z,1.95
2022-08-05T16:07:13.322Z,2.65
2022-08-05T16:10:09.572Z,3.00
2022-08-05T16:12:41.711Z,3.03
2022-08-05T16:15:10.372Z,4.68
2022-08-05T16:17:57.464Z,3.22
2022-08-05T16:20:28.513Z,1.92
2022-08-05T16:22:59.603Z,1.83
2022-08-05T16:25:32.446Z,2.83
2022-08-05T16:28:05.922Z,2.63
2022-08-05T16:30:36.090Z,5.05
2022-08-05T16:33:03.688Z,2.53
2022-08-05T16:35:42.028Z,1.45
2022-08-05T16:38:18.623Z,1.33
2022-08-05T16:42:12.491Z,3.78
2022-08-05T16:43:56.396Z,1.05
2022-08-05T16:46:25.024Z,2.10
2022-08-05T16:48:52.587Z,1.83
2022-08-05T16:51:20.757Z,3.15
2022-08-05T16:54:05.932Z,2.60
2022-08-05T16:56:36.915Z,2.65
2022-08-05T16:59:15.722Z,2.10
2022-08-05T17:01:54.606Z,3.42
2022-08-05T17:04:28.355Z,5.05
2022-08-05T17:07:03.454Z,1.40
2022-08-05T17:09:57.376Z,3.13
2022-08-05T17:12:50.405Z,3.08
2022-08-05T17:15:19.271Z,5.22
2022-08-05T17:17:54.751Z,3.03
2022-08-05T17:20:22.667Z,2.38
2022-08-05T17:22:55.475Z,1.73
2022-08-05T17:25:39.421Z,3.42
2022-08-05T17:28:15.603Z,2.25
2022-08-05T17:30:52.196Z,1.95
2022-08-05T17:33:23.437Z,4.20
2022-08-05T17:36:07.424Z,2.45
2022-08-05T17:38:37.439Z,1.90
2022-08-05T17:41:22.662Z,4.53
2022-08-05T17:43:55.694Z,1.67
2022-08-05T17:46:23.706Z,3.28
2022-08-05T17:48:50.918Z,2.20
2022-08-05T17:51:21.800Z,1.30
2022-08-05T17:53:50.862Z,4.65
2022-08-05T17:56:22.827Z,7.55
2022-08-05T17:58:51.210Z,3.83
2022-08-05T18:01:19.809Z,2.50
2022-08-05T18:04:03.693Z,2.58
2022-08-05T18:06:34.038Z,2.53
2022-08-05T18:09:03.612Z,2.20
2022-08-05T18:11:33.501Z,1.70
2022-08-05T18:14:04.179Z,2.10
2022-08-05T18:16:35.522Z,4.22
2022-08-05T18:19:14.145Z,2.03
2022-08-05T18:22:07.805Z,2.35
2022-08-05T18:24:30.817Z,3.22
2022-08-05T18:26:58.167Z,3.15
2022-08-05T18:29:40.657Z,7.25
2022-08-05T18:32:15.373Z,3.63
2022-08-05T18:34:46.177Z,2.08
2022-08-05T18:37:34.210Z,5.70
2022-08-05T18:40:34.206Z,2.10
2022-08-05T18:42:55.253Z,5.47
2022-08-05T18:45:22.613Z,3.10
2022-08-05T18:47:56.725Z,2.65
2022-08-05T18:50:46.470Z,1.70
2022-08-05T18:53:19.208Z,3.03
2022-08-05T18:55:48.189Z,1.90
2022-08-05T18:58:24.337Z,4.18
2022-08-05T19:00:58.852Z,3.13
2022-08-05T19:03:55.160Z,2.30
2022-08-05T19:06:21.870Z,2.88
2022-08-05T19:08:49.924Z,2.92
2022-08-05T19:11:20.413Z,2.08
2022-08-05T19:14:01.227Z,4.63
2022-08-05T19:16:46.672Z,2.63
2022-08-05T19:19:20.973Z,2.05
2022-08-05T19:21:48.392Z,2.28
2022-08-05T19:24:34.916Z,1.65
2022-08-05T19:27:04.221Z,2.92
2022-08-05T19:29:36.181Z,2.35
2022-08-05T19:32:11.185Z,2.45
2022-08-05T19:34:54.913Z,2.55
2022-08-05T19:37:30.127Z,1.13
2022-08-05T19:40:12.654Z,1.90
2022-08-05T19:42:42.344Z,2.72
2022-08-05T19:45:33.275Z,4.63
2022-08-05T19:48:05.577Z,2.92
2022-08-05T19:50:33.377Z,3.00
2022-08-05T19:53:09.603Z,3.42
2022-08-05T19:56:15.639Z,3.22
2022-08-05T19:58:29.357Z,2.90
2022-08-05T20:00:57.780Z,3.42
2022-08-05T20:03:37.973Z,3.20
2022-08-05T20:06:11.843Z,4.28
2022-08-05T20:08:47.595Z,3.83
2022-08-05T20:11:18.149Z,2.13
2022-08-05T20:13:58.475Z,3.42
2022-08-05T20:16:35.036Z,3.60
2022-08-05T20:19:03.427Z,4.38
2022-08-05T20:21:30.880Z,2.67
2022-08-05T20:23:59.490Z,4.43
2022-08-05T20:26:26.908Z,2.40
2022-08-05T20:28:57.895Z,2.03
2022-08-05T20:31:42.774Z,3.47
2022-08-05T20:34:16.070Z,3.17
2022-08-05T20:36:44.538Z,3.35
2022-08-05T20:39:16.356Z,1.65
2022-08-05T20:41:45.435Z,4.13
2022-08-05T20:44:30.529Z,2.25
2022-08-05T20:47:00.294Z,4.17
2022-08-05T20:49:27.840Z,2.28
2022-08-05T20:51:58.204Z,4.30
2022-08-05T20:54:43.413Z,3.35
2022-08-05T20:57:24.687Z,2.47
2022-08-05T21:00:19.917Z,2.10
2022-08-05T21:03:01.398Z,2.95
2022-08-05T21:05:47.526Z,2.17
2022-08-05T21:08:18.696Z,2.20
2022-08-05T21:10:48.731Z,4.68
2022-08-05T21:13:26.082Z,5.35
2022-08-05T21:15:56.705Z,2.67
2022-08-05T21:18:24.655Z,2.38
2022-08-05T21:23:48.699Z,3.53
2022-08-05T21:26:18.771Z,1.70
2022-08-05T21:28:47.939Z,2.72
2022-08-05T21:31:18.425Z,2.65
2022-08-05T21:33:49.381Z,5.22
2022-08-05T21:36:27.675Z,4.22
2022-08-05T21:38:57.490Z,4.10
2022-08-05T21:41:52.782Z,2.80
2022-08-05T21:44:28.044Z,1.88
2022-08-05T21:46:57.918Z,2.50
2022-08-05T21:49:58.771Z,2.75
2022-08-05T21:52:21.871Z,2.20
2022-08-05T21:54:56.978Z,4.13
2022-08-05T21:57:32.651Z,5.18
2022-08-05T22:00:06.961Z,6.15
2022-08-05T22:02:42.909Z,3.90
2022-08-05T22:05:12.322Z,3.47
2022-08-05T22:07:59.339Z,3.80
2022-08-05T22:10:28.123Z,5.22
2022-08-05T22:14:06.227Z,3.75
2022-08-05T22:15:56.652Z,3.17
2022-08-05T22:18:31.743Z,2.58
2022-08-05T22:20:59.334Z,4.03
2022-08-05T22:24:02.128Z,4.07
2022-08-05T22:26:50.401Z,4.20
2022-08-05T22:29:19.011Z,4.72
2022-08-05T22:31:55.371Z,4.80
2022-08-05T22:34:29.055Z,3.35
2022-08-05T22:37:01.110Z,4.25
2022-08-05T22:39:33.953Z,2.92
2022-08-05T22:42:10.932Z,5.68
2022-08-05T22:44:42.554Z,3.42
2022-08-05T22:47:11.183Z,3.38
2022-08-05T22:50:21.040Z,3.70
2022-08-05T22:52:32.679Z,2.97
2022-08-05T22:55:02.262Z,5.00
2022-08-05T22:57:34.086Z,6.05
2022-08-05T23:00:09.275Z,2.85
2022-08-05T23:02:46.986Z,5.78
2022-08-05T23:05:16.665Z,4.43
2022-08-05T23:07:48.325Z,4.65
2022-08-05T23:10:19.975Z,4.32
2022-08-05T23:12:51.139Z,8.57
2022-08-05T23:15:21.726Z,7.28
2022-08-05T23:18:00.452Z,4.95
2022-08-05T23:20:37.531Z,6.22
2022-08-05T23:23:08.021Z,5.13
2022-08-05T23:25:51.448Z,6.25
2022-08-05T23:28:28.852Z,5.30
2022-08-05T23:31:15.703Z,6.60
2022-08-05T23:34:04.952Z,6.68
2022-08-05T23:36:38.803Z,5.97
2022-08-05T23:39:09.569Z,6.05
2022-08-05T23:41:37.369Z,5.05
2022-08-05T23:44:08.665Z,4.55
2022-08-05T23:46:37.604Z,6.10
2022-08-05T23:49:15.811Z,7.43
2022-08-05T23:52:05.716Z,8.43
2022-08-05T23:54:38.164Z,6.25
2022-08-05T23:57:06.918Z,6.85
